createdAt,value
2023-01-17T10:40:25.141Z,4.82
2023-01-17T10:41:38.047Z,4.81
2023-01-17T10:42:45.747Z,4.71
2023-01-17T10:43:51.232Z,4.74
2023-01-17T10:45:02.148Z,4.72
2023-01-17T10:46:06.600Z,4.81
2023-01-17T10:47:14.906Z,4.80
2023-01-17T10:48:23.316Z,4.84
2023-01-17T10:49:27.798Z,4.83
2023-01-17T10:50:34.298Z,4.77
2023-01-17T10:51:45.428Z,4.74
2023-01-17T10:52:53.101Z,4.70
2023-01-17T10:54:01.707Z,4.66
2023-01-17T10:55:22.508Z,4.62
2023-01-17T10:56:31.860Z,4.59
2023-01-17T10:57:44.479Z,4.65
2023-01-17T10:58:48.749Z,4.66
2023-01-17T10:59:53.205Z,4.67
2023-01-17T11:00:58.937Z,4.70
2023-01-17T11:02:06.786Z,4.69
2023-01-17T11:03:16.554Z,4.65
2023-01-17T11:04:27.712Z,4.58
2023-01-17T11:05:31.310Z,4.55
2023-01-17T11:06:34.521Z,4.59
2023-01-17T11:07:40.195Z,4.61
2023-01-17T11:08:54.267Z,4.55
2023-01-17T11:09:58.276Z,4.49
2023-01-17T11:11:03.268Z,4.53
2023-01-17T11:12:08.526Z,4.57
2023-01-17T11:13:25.913Z,4.53
2023-01-17T11:14:30.367Z,4.65
2023-01-17T11:15:35.703Z,4.55
2023-01-17T11:16:40.086Z,4.60
2023-01-17T11:17:50.756Z,4.67
2023-01-17T11:19:09.067Z,4.67
2023-01-17T11:20:25.001Z,4.71
2023-01-17T11:21:28.429Z,4.59
2023-01-17T11:22:32.421Z,4.69
2023-01-17T11:23:36.426Z,4.57
2023-01-17T11:24:46.720Z,4.64
2023-01-17T11:25:55.343Z,4.71
2023-01-17T11:26:59.265Z,4.68
2023-01-17T11:28:07.275Z,4.75
2023-01-17T11:29:24.037Z,4.78
2023-01-17T11:30:30.123Z,4.80
2023-01-17T11:31:38.169Z,4.77
2023-01-17T11:32:53.754Z,4.74
2023-01-17T11:34:12.081Z,4.70
2023-01-17T11:35:17.401Z,4.80
2023-01-17T11:36:27.986Z,4.75
2023-01-17T11:37:31.111Z,4.65
2023-01-17T11:38:35.628Z,4.71
2023-01-17T11:39:39.342Z,4.69
2023-01-17T11:40:45.598Z,4.60
2023-01-17T11:41:51.552Z,4.50
2023-01-17T11:43:05.289Z,4.50
2023-01-17T11:44:28.495Z,4.39
2023-01-17T11:45:32.690Z,4.43
2023-01-17T11:46:36.229Z,4.48
2023-01-17T11:47:39.321Z,4.55
2023-01-17T11:48:42.526Z,4.51
2023-01-17T11:49:51.750Z,4.56
2023-01-17T11:50:58.141Z,4.50
2023-01-17T11:52:03.771Z,4.50
2023-01-17T11:53:08.925Z,4.61
2023-01-17T11:54:23.082Z,4.59
2023-01-17T11:55:26.396Z,4.61
2023-01-17T11:56:34.615Z,4.58
2023-01-17T11:57:38.250Z,4.58
2023-01-17T11:58:42.315Z,4.64
2023-01-17T11:59:46.273Z,4.62
2023-01-17T12:00:52.484Z,4.58
2023-01-17T12:02:06.946Z,4.65
2023-01-17T12:03:17.775Z,4.61
2023-01-17T12:04:37.839Z,4.56
2023-01-17T12:05:53.071Z,4.56
2023-01-17T12:07:12.560Z,4.50
2023-01-17T12:08:20.765Z,4.59
2023-01-17T12:09:34.091Z,4.57
2023-01-17T12:10:43.315Z,4.60
2023-01-17T12:11:51.316Z,4.55
2023-01-17T12:13:32.128Z,4.50
2023-01-17T12:14:55.796Z,4.52
2023-01-17T12:16:00.984Z,4.54
2023-01-17T12:17:14.075Z,4.58
2023-01-17T12:18:18.623Z,4.62
2023-01-17T12:19:42.745Z,4.55
2023-01-17T12:20:48.923Z,4.51
2023-01-17T12:22:10.409Z,4.53
2023-01-17T12:23:18.493Z,4.59
2023-01-17T12:24:31.228Z,4.67
2023-01-17T12:25:41.277Z,4.63
2023-01-17T12:26:46.381Z,4.66
2023-01-17T12:28:10.624Z,4.58
2023-01-17T12:29:20.732Z,4.56
2023-01-17T12:30:27.468Z,4.54
2023-01-17T12:31:42.052Z,4.55
2023-01-17T12:33:03.302Z,4.60
2023-01-17T12:34:09.743Z,4.64
2023-01-17T12:35:18.156Z,4.52
2023-01-17T12:36:39.764Z,4.55
2023-01-17T12:37:44.847Z,4.50
2023-01-17T12:38:47.786Z,4.50
2023-01-17T12:39:55.048Z,4.51
2023-01-17T12:41:01.783Z,4.46
2023-01-17T12:42:16.047Z,4.34
2023-01-17T12:43:20.715Z,4.37
2023-01-17T12:44:25.991Z,4.37
2023-01-17T12:45:33.787Z,4.39
2023-01-17T12:46:39.329Z,4.43
2023-01-17T12:47:45.801Z,4.41
2023-01-17T12:48:53.586Z,4.39
2023-01-17T12:50:14.101Z,4.40
2023-01-17T12:51:23.999Z,4.36
2023-01-17T12:52:40.564Z,4.36
2023-01-17T12:53:57.942Z,4.38
2023-01-17T12:55:06.266Z,4.43
2023-01-17T12:56:12.561Z,4.31
2023-01-17T12:57:18.303Z,4.33
2023-01-17T12:58:23.676Z,4.35
2023-01-17T12:59:31.882Z,4.36
2023-01-17T13:00:38.105Z,4.45
2023-01-17T13:01:43.590Z,4.42
2023-01-17T13:02:48.948Z,4.35
2023-01-17T13:03:57.751Z,4.36
2023-01-17T13:05:09.924Z,4.45
2023-01-17T13:06:18.497Z,4.47
2023-01-17T13:07:29.226Z,4.43
2023-01-17T13:08:41.091Z,4.41
2023-01-17T13:09:49.485Z,4.37
2023-01-17T13:11:00.851Z,4.31
2023-01-17T13:12:09.204Z,4.32
2023-01-17T13:13:14.414Z,4.29
2023-01-17T13:14:18.853Z,4.37
2023-01-17T13:15:23.902Z,4.45
2023-01-17T13:16:29.138Z,4.50
2023-01-17T13:17:35.314Z,4.50
2023-01-17T13:18:40.727Z,4.49
2023-01-17T13:19:59.585Z,4.55
2023-01-17T13:21:10.701Z,4.56
2023-01-17T13:22:22.085Z,4.59
2023-01-17T13:23:31.381Z,4.57
2023-01-17T13:24:40.108Z,4.60
2023-01-17T13:27:02.447Z,4.78
2023-01-17T13:28:24.882Z,4.60
2023-01-17T13:29:30.695Z,4.59
2023-01-17T13:30:41.294Z,4.69
2023-01-17T13:31:54.265Z,4.65
2023-01-17T13:33:05.330Z,4.69
2023-01-17T13:34:19.525Z,4.70
2023-01-17T13:35:43.632Z,4.67
2023-01-17T13:37:06.415Z,4.62
2023-01-17T13:38:13.780Z,4.64
2023-01-17T13:39:18.691Z,4.65
2023-01-17T13:40:40.840Z,4.66
2023-01-17T13:41:47.794Z,4.66
2023-01-17T13:42:56.939Z,4.69
2023-01-17T13:44:19.037Z,4.70
2023-01-17T13:45:23.283Z,4.62
2023-01-17T13:46:35.367Z,4.58
2023-01-17T13:47:42.067Z,4.59
2023-01-17T13:48:45.221Z,4.53
2023-01-17T13:49:51.601Z,4.49
2023-01-17T13:50:59.930Z,4.52
2023-01-17T13:52:11.668Z,4.52
2023-01-17T13:53:33.869Z,4.51
2023-01-17T13:54:57.225Z,4.51
2023-01-17T13:56:03.336Z,4.64
2023-01-17T13:57:29.599Z,4.54
2023-01-17T13:58:56.198Z,4.52
2023-01-17T14:00:00.875Z,4.46
2023-01-17T14:01:04.090Z,4.56
2023-01-17T14:02:09.435Z,4.65
2023-01-17T14:03:13.989Z,4.57
2023-01-17T14:04:18.364Z,4.56
2023-01-17T14:05:23.705Z,4.62
2023-01-17T14:06:37.498Z,4.57
2023-01-17T14:07:53.905Z,4.58
2023-01-17T14:09:12.032Z,4.53
2023-01-17T14:10:28.867Z,4.62
2023-01-17T14:11:35.545Z,4.64
2023-01-17T14:12:38.304Z,4.65
2023-01-17T14:13:41.818Z,4.55
2023-01-17T14:14:47.100Z,4.53
2023-01-17T14:15:51.237Z,4.62
2023-01-17T14:16:54.737Z,4.57
2023-01-17T14:17:59.166Z,4.58
2023-01-17T14:19:02.795Z,4.53
2023-01-17T14:20:09.368Z,4.53
2023-01-17T14:21:26.936Z,4.62
2023-01-17T14:22:32.031Z,4.53
2023-01-17T14:23:37.285Z,4.56
2023-01-17T14:24:58.547Z,4.54
2023-01-17T14:26:03.735Z,4.47
2023-01-17T14:27:16.730Z,4.58
2023-01-17T14:28:33.985Z,4.59
2023-01-17T14:29:46.653Z,4.63
2023-01-17T14:30:52.599Z,4.54
2023-01-17T14:56:18.424Z,4.61
2023-01-17T14:57:29.229Z,4.77
2023-01-17T14:58:33.473Z,4.81
2023-01-17T14:59:36.872Z,4.88
2023-01-17T15:00:39.626Z,4.90
2023-01-17T15:01:55.239Z,4.88
2023-01-17T15:02:52.229Z,4.87
2023-01-17T15:03:56.983Z,4.81
2023-01-17T15:05:04.348Z,4.80
2023-01-17T15:06:11.368Z,4.81
2023-01-17T15:07:16.763Z,4.86
2023-01-17T15:08:23.529Z,4.88
2023-01-17T15:09:28.991Z,4.82
2023-01-17T15:10:33.018Z,4.88
2023-01-17T15:11:36.314Z,4.82
2023-01-17T15:12:39.924Z,4.83
2023-01-17T15:13:47.946Z,4.90
2023-01-17T15:14:51.308Z,4.86
2023-01-17T15:15:57.960Z,4.86
2023-01-17T15:17:20.894Z,4.85
2023-01-17T15:18:27.229Z,4.86
2023-01-17T15:19:32.503Z,4.87
2023-01-17T15:20:42.152Z,4.93
2023-01-17T15:21:48.623Z,4.88
2023-01-17T15:22:51.259Z,4.98
2023-01-17T15:24:00.398Z,4.98
2023-01-17T15:25:03.728Z,4.98
2023-01-17T15:26:08.836Z,4.88
2023-01-17T15:27:15.153Z,4.84
2023-01-17T15:28:19.051Z,4.86
2023-01-17T15:29:26.401Z,4.91
2023-01-17T15:30:30.043Z,4.93
2023-01-17T15:31:45.618Z,4.93
2023-01-17T15:32:50.803Z,4.95
2023-01-17T15:33:55.898Z,4.94
2023-01-17T15:34:59.575Z,4.89
2023-01-17T15:36:06.245Z,4.91
2023-01-17T15:37:23.411Z,4.94
2023-01-17T15:38:27.025Z,4.87
2023-01-17T15:39:42.111Z,4.94
2023-01-17T15:40:45.419Z,4.95
2023-01-17T15:41:50.483Z,5.03
2023-01-17T15:42:57.328Z,4.98
2023-01-17T15:44:00.726Z,4.95
2023-01-17T15:45:04.868Z,4.93
2023-01-17T15:46:11.091Z,4.95
2023-01-17T15:47:33.908Z,5.03
2023-01-17T15:48:41.213Z,4.95
2023-01-17T15:49:46.311Z,5.02
2023-01-17T15:50:52.078Z,5.07
2023-01-17T15:53:12.228Z,5.16
2023-01-17T15:54:33.300Z,5.03
2023-01-17T15:55:39.711Z,5.03
2023-01-17T15:56:44.963Z,5.04
2023-01-17T15:57:48.825Z,5.06
2023-01-17T15:58:52.615Z,5.02
2023-01-17T16:00:01.027Z,5.04
2023-01-17T16:01:06.526Z,5.09
2023-01-17T16:02:29.105Z,5.03
2023-01-17T16:03:34.849Z,5.08
2023-01-17T16:04:41.602Z,5.01
2023-01-17T16:05:44.780Z,5.03
2023-01-17T16:06:48.103Z,5.03
2023-01-17T16:07:53.498Z,5.05
2023-01-17T16:08:57.908Z,5.00
2023-01-17T16:10:08.823Z,5.01
